| time (UTC) | temp C | wind direction | speed KPH | gust KPH | rain 1hr cm | rain 24hr cm | rain mn cm | humidity % | barometer mb |
| 20260504050004 | 17 | 203 | 3.2 | 6.4 | 0.00 | 4.95 | 0.18 | 69 | 1007.0 |
| 20260504043004 | 16 | 203 | 6.4 | 20.9 | 0.00 | 4.95 | 0.18 | 73 | 1007.0 |
| 20260504040004 | 13 | 203 | 3.2 | 11.3 | 0.00 | 4.95 | 0.18 | 78 | 1006.6 |
| 20260504033004 | 14 | 203 | 3.2 | 17.7 | 0.00 | 4.95 | 0.18 | 78 | 1006.7 |
| 20260504030004 | 14 | 203 | 3.2 | 11.3 | 0.00 | 4.95 | 0.18 | 77 | 1006.5 |
| 20260504023003 | 16 | 203 | 3.2 | 12.9 | 0.00 | 4.95 | 0.18 | 73 | 1006.5 |
| 20260504020003 | 15 | 203 | 3.2 | 11.3 | 0.00 | 4.95 | 0.18 | 77 | 1006.2 |
| 20260504013004 | 15 | 203 | 3.2 | 11.3 | 0.00 | 4.95 | 0.18 | 79 | 1006.3 |
| 20260504010004 | 15 | 203 | 3.2 | 12.9 | 0.00 | 4.95 | 0.18 | 84 | 1006.5 |
| 20260504003004 | 14 | 203 | 3.2 | 9.7 | 0.00 | 4.95 | 0.18 | 86 | 1006.4 |
| 20260504000012 | 13 | 202 | 3.2 | 14.5 | 0.00 | 4.95 | 0.18 | 89 | 1006.4 |
| 20260503233004 | 13 | 203 | 3.2 | 11.3 | 0.00 | 4.95 | 0.18 | 92 | 1006.0 |
| 20260503230004 | 12 | 203 | 4.8 | 11.3 | 0.00 | 4.95 | 0.18 | 94 | 1005.8 |
| 20260503223004 | 12 | 202 | 4.8 | 17.7 | 0.00 | 4.95 | 0.18 | 97 | 1005.2 |
| 20260503220004 | 12 | 203 | 4.8 | 11.3 | 0.00 | 4.95 | 0.18 | 99 | 1004.7 |
| 20260503213004 | 12 | 203 | 4.8 | 14.5 | 0.00 | 4.95 | 0.18 | 99 | 1004.1 |
| 20260503210005 | 12 | 203 | 3.2 | 12.9 | 0.00 | 4.95 | 0.18 | 99 | 1003.9 |
| 20260503203004 | 13 | 203 | 6.4 | 24.1 | 0.00 | 4.95 | 0.18 | 92 | 1003.3 |
| 20260503200004 | 12 | 203 | 4.8 | 20.9 | 0.00 | 4.95 | 0.18 | 99 | 1003.0 |
| 20260503193004 | 12 | 202 | 4.8 | 14.5 | 0.00 | 4.95 | 0.18 | 99 | 1002.8 |
| 20260503190004 | 13 | 203 | 6.4 | 17.7 | 0.00 | 4.95 | 0.18 | 99 | 1002.7 |
| 20260503183004 | 13 | 202 | 4.8 | 12.9 | 0.10 | 4.95 | 0.18 | 99 | 1002.6 |
| 20260503180004 | 14 | 203 | 3.2 | 9.7 | 0.10 | 4.95 | 0.18 | 99 | 1002.0 |
| 20260503173004 | 14 | 203 | 6.4 | 22.5 | 0.00 | 4.85 | 0.10 | 99 | 1001.6 |